createdAt,value
2019-02-16T00:00:20.694Z,3.72
2019-02-16T00:02:48.841Z,3.71
2019-02-16T00:05:16.910Z,3.72
2019-02-16T00:07:45.196Z,3.75
2019-02-16T00:10:13.388Z,3.72
2019-02-16T00:12:41.455Z,3.80
2019-02-16T00:15:09.653Z,3.74
2019-02-16T00:17:37.890Z,3.76
2019-02-16T00:20:06.452Z,3.77
2019-02-16T00:22:34.659Z,3.79
2019-02-16T00:25:03.078Z,3.82
2019-02-16T00:27:31.548Z,3.88
2019-02-16T00:29:59.659Z,3.85
2019-02-16T00:32:27.791Z,3.93
2019-02-16T00:34:55.926Z,3.88
2019-02-16T00:37:24.135Z,3.83
2019-02-16T00:39:52.530Z,3.87
2019-02-16T00:42:20.629Z,3.87
2019-02-16T00:44:53.139Z,3.79
2019-02-16T00:47:21.225Z,3.75
2019-02-16T00:49:49.599Z,3.83
2019-02-16T00:52:17.827Z,3.78
2019-02-16T00:54:45.925Z,3.70
2019-02-16T00:57:14.288Z,3.70
2019-02-16T00:59:42.850Z,3.71
2019-02-16T01:02:11.232Z,3.64
2019-02-16T01:04:40.186Z,3.62
2019-02-16T01:07:08.280Z,3.59
2019-02-16T01:09:36.403Z,3.59
2019-02-16T01:12:04.492Z,3.57
2019-02-16T01:14:32.593Z,3.52
2019-02-16T01:17:01.653Z,3.43
2019-02-16T01:19:29.794Z,3.39
2019-02-16T01:21:57.880Z,3.45
2019-02-16T01:24:27.353Z,3.23
2019-02-16T01:26:55.487Z,3.00
2019-02-16T01:29:23.640Z,2.78
2019-02-16T01:31:51.690Z,2.70
2019-02-16T01:34:19.967Z,2.65
2019-02-16T01:36:48.080Z,2.71
2019-02-16T01:39:16.402Z,2.73
2019-02-16T01:41:47.528Z,2.78
2019-02-16T01:44:15.847Z,2.77
2019-02-16T01:46:44.160Z,2.80
2019-02-16T01:49:12.323Z,2.83
2019-02-16T01:51:40.432Z,2.83
2019-02-16T01:54:08.618Z,2.85
2019-02-16T01:56:36.868Z,2.84
2019-02-16T01:59:04.937Z,2.84
2019-02-16T02:01:33.321Z,2.86
2019-02-16T02:04:01.454Z,2.88
2019-02-16T02:06:29.983Z,2.85
2019-02-16T02:08:58.313Z,2.82
2019-02-16T02:11:26.525Z,2.82
2019-02-16T02:13:54.661Z,2.79
2019-02-16T02:16:22.956Z,2.83
2019-02-16T02:18:51.282Z,2.78
2019-02-16T02:21:19.438Z,2.78
2019-02-16T02:23:47.982Z,2.82
2019-02-16T02:26:16.173Z,2.77
2019-02-16T02:28:44.308Z,2.83
2019-02-16T02:31:12.422Z,2.86
2019-02-16T02:33:40.554Z,2.84
2019-02-16T02:36:08.805Z,2.80
2019-02-16T02:38:36.989Z,2.84
2019-02-16T02:41:05.177Z,2.94
2019-02-16T02:43:33.341Z,2.96
2019-02-16T02:46:01.486Z,2.97
2019-02-16T02:48:29.875Z,2.99
2019-02-16T02:50:57.970Z,2.99
2019-02-16T02:53:31.229Z,3.00
2019-02-16T02:55:56.332Z,2.98
2019-02-16T02:58:24.811Z,2.97
2019-02-16T03:00:53.248Z,2.96
2019-02-16T03:03:21.431Z,2.96
2019-02-16T03:05:49.776Z,2.88
2019-02-16T03:08:18.317Z,2.82
2019-02-16T03:10:46.468Z,2.71
2019-02-16T03:13:14.573Z,2.61
2019-02-16T03:15:42.785Z,2.62
2019-02-16T03:18:10.850Z,2.52
2019-02-16T03:20:39.021Z,2.48
2019-02-16T03:23:18.958Z,2.51
2019-02-16T03:26:05.566Z,2.56
2019-02-16T03:28:46.032Z,2.54
2019-02-16T03:31:47.767Z,2.48
2019-02-16T03:34:24.611Z,2.40
2019-02-16T03:37:56.075Z,2.32
2019-02-16T03:40:25.168Z,2.26
2019-02-16T03:42:53.399Z,2.21
2019-02-16T03:45:21.504Z,2.14
2019-02-16T03:47:49.712Z,2.00
2019-02-16T03:50:17.878Z,2.12
2019-02-16T03:52:45.960Z,1.91
2019-02-16T03:55:15.019Z,1.95
2019-02-16T03:57:43.165Z,1.91
2019-02-16T04:00:12.017Z,1.74
2019-02-16T04:02:40.146Z,1.65
2019-02-16T04:05:08.457Z,1.72
2019-02-16T04:07:36.673Z,1.66
2019-02-16T04:10:05.523Z,1.73
2019-02-16T04:12:33.606Z,1.59
2019-02-16T04:15:04.095Z,1.72
2019-02-16T04:17:32.262Z,1.67
2019-02-16T04:20:00.466Z,1.60
2019-02-16T04:22:28.606Z,1.48
2019-02-16T04:24:56.763Z,1.53
2019-02-16T04:27:24.795Z,1.58
2019-02-16T04:29:52.838Z,1.36
2019-02-16T04:32:21.000Z,1.56
2019-02-16T04:34:49.532Z,1.57
2019-02-16T04:37:17.812Z,1.54
2019-02-16T04:39:46.028Z,1.62
2019-02-16T04:42:14.450Z,1.55
2019-02-16T04:44:42.721Z,1.56
2019-02-16T04:47:10.914Z,1.60
2019-02-16T04:49:39.099Z,1.66
2019-02-16T04:52:07.883Z,1.66
2019-02-16T04:54:35.975Z,1.63
2019-02-16T04:57:04.113Z,1.65
2019-02-16T04:59:32.414Z,1.67
2019-02-16T05:02:00.628Z,1.69
2019-02-16T05:04:28.715Z,1.76
2019-02-16T05:06:57.350Z,1.63
2019-02-16T05:09:25.592Z,1.59
2019-02-16T05:11:53.666Z,1.55
2019-02-16T05:14:21.767Z,1.59
2019-02-16T05:16:49.935Z,1.56
2019-02-16T05:19:18.035Z,1.48
2019-02-16T05:21:46.184Z,1.45
2019-02-16T05:24:14.289Z,1.41
2019-02-16T05:26:42.452Z,1.40
2019-02-16T05:29:10.534Z,1.43
2019-02-16T05:31:38.643Z,1.49
2019-02-16T05:34:06.895Z,1.42
2019-02-16T05:36:35.121Z,1.32
2019-02-16T05:39:04.611Z,1.25
2019-02-16T05:41:32.977Z,1.31
2019-02-16T05:44:01.104Z,1.25
2019-02-16T05:46:29.240Z,1.24
2019-02-16T05:48:57.299Z,1.32
2019-02-16T05:51:25.400Z,1.29
2019-02-16T05:53:53.495Z,1.17
2019-02-16T05:56:21.604Z,1.19
2019-02-16T05:58:49.991Z,1.00
2019-02-16T06:01:18.098Z,0.87
2019-02-16T06:03:46.639Z,0.93
2019-02-16T06:06:14.936Z,0.70
2019-02-16T06:08:43.111Z,0.73
2019-02-16T06:11:11.315Z,0.72
2019-02-16T06:13:39.535Z,0.66
2019-02-16T06:16:07.776Z,0.69
2019-02-16T06:18:35.920Z,0.83
2019-02-16T06:21:04.142Z,0.76
2019-02-16T06:23:32.267Z,0.82
2019-02-16T06:26:00.484Z,0.78
2019-02-16T06:28:28.596Z,0.76
2019-02-16T06:30:56.891Z,0.82
2019-02-16T06:33:25.576Z,0.80
2019-02-16T06:36:13.501Z,0.88
2019-02-16T06:38:42.188Z,0.98
2019-02-16T06:41:10.367Z,1.14
2019-02-16T06:43:38.761Z,1.35
2019-02-16T06:46:07.045Z,1.55
2019-02-16T06:48:35.148Z,1.62
2019-02-16T06:51:03.252Z,1.60
2019-02-16T06:53:31.436Z,1.63
2019-02-16T06:56:05.379Z,1.64
2019-02-16T06:58:33.563Z,1.68
2019-02-16T07:01:01.638Z,1.69
2019-02-16T07:03:29.704Z,1.69
2019-02-16T07:05:57.827Z,1.72
2019-02-16T07:08:26.283Z,1.77
2019-02-16T07:10:54.621Z,1.81
2019-02-16T07:13:22.696Z,1.85
2019-02-16T07:16:09.267Z,1.91
2019-02-16T07:18:49.161Z,1.96
2019-02-16T07:21:17.281Z,2.08
2019-02-16T07:23:45.465Z,2.13
2019-02-16T07:26:13.608Z,2.23
2019-02-16T07:28:42.019Z,2.27
2019-02-16T07:31:10.047Z,2.37
2019-02-16T07:33:38.190Z,2.69
2019-02-16T07:36:06.300Z,2.86
2019-02-16T07:38:34.446Z,2.82
2019-02-16T07:41:02.677Z,3.03
2019-02-16T07:43:53.546Z,3.12
2019-02-16T07:46:31.097Z,3.29
2019-02-16T07:49:05.446Z,3.32
2019-02-16T07:51:52.165Z,3.55
2019-02-16T07:54:54.992Z,3.89
2019-02-16T07:57:42.815Z,3.86
2019-02-16T08:00:30.537Z,4.26
2019-02-16T08:03:23.735Z,4.51
2019-02-16T08:06:10.061Z,4.53
2019-02-16T08:08:58.291Z,4.58
2019-02-16T08:11:49.034Z,4.80
2019-02-16T08:14:25.892Z,4.87
2019-02-16T08:17:02.549Z,5.07
2019-02-16T08:19:56.666Z,5.17
2019-02-16T08:22:35.832Z,5.36
2019-02-16T08:25:24.034Z,5.43
2019-02-16T08:27:57.980Z,5.56
2019-02-16T08:30:48.474Z,5.65
2019-02-16T08:33:25.456Z,5.85
2019-02-16T08:36:25.180Z,6.00
2019-02-16T08:39:02.015Z,6.04
2019-02-16T08:41:48.612Z,6.17
2019-02-16T08:44:25.628Z,6.23
2019-02-16T08:47:19.853Z,6.38
2019-02-16T08:50:03.973Z,6.47
2019-02-16T08:52:50.851Z,6.67
2019-02-16T08:55:38.034Z,6.90
2019-02-16T08:58:40.826Z,7.02
2019-02-16T09:01:31.233Z,7.14
2019-02-16T09:04:24.804Z,7.26
2019-02-16T09:07:05.809Z,7.23
2019-02-16T09:09:42.808Z,7.55
2019-02-16T09:12:39.835Z,7.53
2019-02-16T09:15:42.941Z,7.64
2019-02-16T09:18:45.666Z,7.67
2019-02-16T09:21:32.220Z,8.09
2019-02-16T09:24:10.319Z,8.23
2019-02-16T09:27:04.009Z,8.43
2019-02-16T09:29:57.552Z,8.47
2019-02-16T09:32:37.716Z,8.58
2019-02-16T09:35:16.704Z,8.64
2019-02-16T09:38:03.379Z,8.77
2019-02-16T09:41:03.104Z,8.86
2019-02-16T09:43:47.053Z,8.91
2019-02-16T09:46:40.732Z,8.85
2019-02-16T09:49:22.893Z,8.97
2019-02-16T09:52:20.173Z,8.96
2019-02-16T09:55:07.933Z,9.07
2019-02-16T09:58:10.807Z,9.14
2019-02-16T10:01:01.373Z,9.21
2019-02-16T10:03:55.097Z,9.42
2019-02-16T10:06:41.518Z,9.42
2019-02-16T10:09:32.054Z,9.68
2019-02-16T10:12:18.618Z,9.67
2019-02-16T10:14:53.914Z,9.67
2019-02-16T10:17:31.357Z,9.61
2019-02-16T10:20:07.651Z,9.60
2019-02-16T10:23:01.305Z,9.86
2019-02-16T10:25:41.713Z,10.00
2019-02-16T10:28:28.214Z,9.87
2019-02-16T10:31:28.091Z,10.11
2019-02-16T10:34:03.381Z,10.26
2019-02-16T10:36:42.763Z,10.17
2019-02-16T10:39:26.813Z,10.31
2019-02-16T10:42:21.443Z,10.19
2019-02-16T10:44:58.550Z,10.28
2019-02-16T10:47:55.618Z,10.57
2019-02-16T10:50:43.595Z,10.65
2019-02-16T10:53:33.117Z,10.57
2019-02-16T10:56:20.031Z,10.62
2019-02-16T10:59:13.850Z,10.70
2019-02-16T11:02:04.803Z,10.68
2019-02-16T11:04:42.263Z,10.85
2019-02-16T11:07:18.574Z,10.97
2019-02-16T11:10:09.124Z,11.03
2019-02-16T11:12:59.841Z,11.09
2019-02-16T11:15:46.103Z,11.19
2019-02-16T11:18:31.435Z,11.11
2019-02-16T11:21:28.593Z,11.01
2019-02-16T11:24:08.707Z,11.14
2019-02-16T11:26:41.803Z,11.40
2019-02-16T11:29:45.195Z,11.45
2019-02-16T11:32:28.751Z,11.50
2019-02-16T11:35:10.332Z,11.46
2019-02-16T11:38:04.295Z,11.55
2019-02-16T11:40:42.388Z,11.68
2019-02-16T11:43:23.241Z,11.67
2019-02-16T11:46:13.746Z,11.88
2019-02-16T11:48:52.166Z,11.81
2019-02-16T11:51:39.923Z,11.91
2019-02-16T11:54:45.674Z,12.05
2019-02-16T11:57:35.517Z,12.16
2019-02-16T12:00:26.681Z,12.05
2019-02-16T12:03:26.546Z,12.21
2019-02-16T12:06:03.463Z,12.29
2019-02-16T12:08:54.724Z,12.24
2019-02-16T12:11:41.755Z,12.27
2019-02-16T12:14:32.524Z,12.32
2019-02-16T12:17:17.492Z,12.41
2019-02-16T12:20:04.177Z,12.44
2019-02-16T12:22:41.971Z,12.43
2019-02-16T12:25:18.963Z,12.57
2019-02-16T12:28:01.502Z,12.71
2019-02-16T12:30:48.090Z,12.69
2019-02-16T12:33:39.294Z,12.70
2019-02-16T12:36:27.712Z,12.81
2019-02-16T12:39:15.742Z,12.82
2019-02-16T12:42:05.814Z,12.88
2019-02-16T12:45:03.070Z,13.00
2019-02-16T12:47:56.864Z,13.09
2019-02-16T12:50:50.468Z,13.13
2019-02-16T12:53:36.877Z,13.10
2019-02-16T12:56:20.731Z,13.11
2019-02-16T12:59:08.564Z,13.09
2019-02-16T13:01:49.197Z,13.20
2019-02-16T13:04:40.341Z,13.23
2019-02-16T13:07:14.418Z,13.12
2019-02-16T13:10:02.818Z,13.32
2019-02-16T13:12:49.911Z,13.34
2019-02-16T13:15:46.997Z,13.18
2019-02-16T13:18:30.852Z,13.35
2019-02-16T13:21:15.012Z,13.40
2019-02-16T13:24:03.556Z,13.40
2019-02-16T13:27:00.270Z,13.38
2019-02-16T13:29:35.986Z,13.40
2019-02-16T13:32:30.604Z,13.48
2019-02-16T13:35:21.154Z,13.59
2019-02-16T13:38:08.963Z,13.55
2019-02-16T13:40:57.320Z,13.37
2019-02-16T13:43:47.664Z,13.37
2019-02-16T13:46:28.977Z,13.46
2019-02-16T13:49:12.123Z,13.49
2019-02-16T13:51:53.559Z,13.42
2019-02-16T13:54:40.139Z,13.48
2019-02-16T13:57:26.423Z,13.49
2019-02-16T14:00:01.407Z,13.56
2019-02-16T14:02:43.424Z,13.49
2019-02-16T14:05:25.971Z,13.54
2019-02-16T14:08:17.312Z,13.55
2019-02-16T14:11:14.309Z,13.50
2019-02-16T14:14:01.970Z,13.44
2019-02-16T14:16:55.869Z,13.48
2019-02-16T14:19:24.334Z,13.47
2019-02-16T14:21:52.421Z,13.47
2019-02-16T14:24:39.642Z,13.37
2019-02-16T14:27:08.004Z,13.49
2019-02-16T14:29:36.194Z,13.52
2019-02-16T14:32:04.369Z,13.40
2019-02-16T14:34:32.448Z,13.52
2019-02-16T14:37:02.389Z,13.43
2019-02-16T14:39:31.867Z,13.62
2019-02-16T14:42:00.188Z,13.48
2019-02-16T14:44:28.298Z,13.56
2019-02-16T14:46:56.510Z,13.50
2019-02-16T14:49:24.698Z,13.50
2019-02-16T14:51:53.242Z,13.35
2019-02-16T14:54:21.319Z,13.39
2019-02-16T14:56:49.483Z,13.37
2019-02-16T14:59:17.850Z,13.28
2019-02-16T15:01:46.284Z,13.08
2019-02-16T15:04:14.427Z,13.04
2019-02-16T15:06:42.552Z,12.98
2019-02-16T15:09:10.764Z,12.97
2019-02-16T15:11:39.231Z,13.02
2019-02-16T15:14:07.430Z,12.82
2019-02-16T15:16:35.573Z,12.87
2019-02-16T15:19:03.960Z,12.88
2019-02-16T15:21:32.049Z,12.67
2019-02-16T15:24:00.129Z,12.66
2019-02-16T15:26:28.943Z,12.68
2019-02-16T15:28:57.973Z,12.66
2019-02-16T15:31:26.062Z,12.60
2019-02-16T15:33:54.330Z,12.32
2019-02-16T15:36:24.219Z,12.24
2019-02-16T15:38:52.495Z,12.11
2019-02-16T15:41:20.677Z,12.05
2019-02-16T15:43:48.759Z,12.09
2019-02-16T15:46:16.968Z,12.12
2019-02-16T15:48:45.040Z,12.05
2019-02-16T15:51:13.242Z,12.06
2019-02-16T15:53:41.399Z,11.83
2019-02-16T15:56:10.797Z,11.66
2019-02-16T15:58:41.764Z,11.48
2019-02-16T16:01:09.838Z,11.63
2019-02-16T16:03:38.020Z,11.36
2019-02-16T16:06:07.251Z,11.25
2019-02-16T16:08:48.745Z,11.28
2019-02-16T16:11:39.200Z,11.32
2019-02-16T16:14:13.583Z,11.33
2019-02-16T16:16:59.492Z,11.07
2019-02-16T16:19:40.502Z,10.93
2019-02-16T16:22:15.387Z,10.78
2019-02-16T16:25:05.766Z,10.88
2019-02-16T16:27:51.020Z,10.83
2019-02-16T16:30:56.772Z,10.57
2019-02-16T16:33:43.350Z,10.54
2019-02-16T16:36:16.778Z,10.56
2019-02-16T16:39:16.612Z,10.35
2019-02-16T16:42:00.332Z,10.30
2019-02-16T16:44:40.531Z,10.12
2019-02-16T16:47:43.718Z,10.01
2019-02-16T16:50:22.526Z,9.93
2019-02-16T16:53:20.934Z,9.93
2019-02-16T16:56:08.789Z,9.93
2019-02-16T16:59:00.161Z,9.77
2019-02-16T17:01:53.464Z,9.60
2019-02-16T17:04:39.748Z,9.64
2019-02-16T17:07:26.561Z,9.51
2019-02-16T17:10:12.929Z,9.45
2019-02-16T17:13:02.316Z,9.34
2019-02-16T17:15:58.925Z,9.30
2019-02-16T17:18:45.771Z,9.18
2019-02-16T17:21:51.702Z,9.09
2019-02-16T17:24:38.269Z,9.10
2019-02-16T17:27:18.601Z,8.98
2019-02-16T17:30:07.181Z,8.98
2019-02-16T17:32:57.973Z,8.90
2019-02-16T17:35:34.459Z,8.84
2019-02-16T17:38:22.298Z,8.99
2019-02-16T17:41:21.978Z,8.89
2019-02-16T17:44:10.464Z,8.83
2019-02-16T17:46:58.366Z,8.74
2019-02-16T17:49:37.276Z,8.71
2019-02-16T17:52:18.931Z,8.69
2019-02-16T17:55:16.546Z,8.63
2019-02-16T17:58:04.267Z,8.53
2019-02-16T18:00:57.894Z,8.47
2019-02-16T18:03:44.817Z,8.45
2019-02-16T18:06:35.518Z,8.47
2019-02-16T18:09:24.332Z,8.44
2019-02-16T18:11:59.147Z,8.33
2019-02-16T18:15:02.484Z,8.23
2019-02-16T18:18:08.227Z,8.28
2019-02-16T18:20:46.271Z,8.17
2019-02-16T18:23:25.689Z,8.23
2019-02-16T18:26:10.114Z,8.14
2019-02-16T18:29:00.964Z,8.00
2019-02-16T18:31:47.557Z,7.99
2019-02-16T18:34:35.246Z,7.87
2019-02-16T18:37:10.081Z,7.79
2019-02-16T18:39:56.340Z,7.77
2019-02-16T18:42:56.566Z,7.72
2019-02-16T18:45:43.473Z,7.72
2019-02-16T18:48:46.495Z,7.70
2019-02-16T18:51:40.445Z,7.66
2019-02-16T18:54:21.230Z,7.56
2019-02-16T18:57:06.873Z,7.55
2019-02-16T18:59:48.397Z,7.55
2019-02-16T19:02:45.194Z,7.62
2019-02-16T19:05:22.281Z,7.54
2019-02-16T19:08:03.386Z,7.47
2019-02-16T19:11:03.687Z,7.47
2019-02-16T19:13:57.822Z,7.50
2019-02-16T19:17:04.045Z,7.57
2019-02-16T19:19:43.436Z,7.47
2019-02-16T19:22:29.090Z,7.42
2019-02-16T19:25:17.111Z,7.43
2019-02-16T19:28:13.619Z,7.36
2019-02-16T19:31:01.543Z,7.29
2019-02-16T19:33:58.161Z,7.19
2019-02-16T19:36:39.080Z,7.10
2019-02-16T19:39:13.353Z,7.06
2019-02-16T19:41:56.101Z,7.02
2019-02-16T19:44:42.487Z,6.96
2019-02-16T19:47:23.278Z,6.89
2019-02-16T19:50:14.300Z,6.71
2019-02-16T19:53:17.244Z,6.67
2019-02-16T19:56:03.614Z,6.60
2019-02-16T19:58:40.529Z,6.53
2019-02-16T20:01:28.812Z,6.43
2019-02-16T20:04:15.837Z,6.35
2019-02-16T20:07:09.809Z,6.26
2019-02-16T20:09:53.899Z,6.24
2019-02-16T20:12:44.789Z,6.22
2019-02-16T20:15:21.395Z,6.19
2019-02-16T20:18:12.493Z,6.13
2019-02-16T20:21:06.034Z,6.05
2019-02-16T20:23:44.101Z,6.02
2019-02-16T20:26:30.473Z,5.98
2019-02-16T20:29:08.649Z,5.82
2019-02-16T20:31:51.233Z,5.82
2019-02-16T20:34:27.888Z,5.83
2019-02-16T20:37:08.970Z,5.84
2019-02-16T20:40:02.033Z,5.82
2019-02-16T20:42:45.638Z,5.78
2019-02-16T20:45:52.922Z,5.75
2019-02-16T20:48:39.722Z,5.74
2019-02-16T20:51:33.573Z,5.69
2019-02-16T20:54:37.014Z,5.61
2019-02-16T20:57:47.715Z,5.54
2019-02-16T21:00:27.366Z,5.56
2019-02-16T21:03:27.033Z,5.54
2019-02-16T21:06:20.956Z,5.50
2019-02-16T21:09:06.097Z,5.51
2019-02-16T21:11:59.934Z,5.51
2019-02-16T21:14:48.002Z,5.57
2019-02-16T21:17:44.706Z,5.56
2019-02-16T21:20:52.188Z,5.55
2019-02-16T21:23:38.937Z,5.56
2019-02-16T21:26:39.816Z,5.55
2019-02-16T21:29:27.025Z,5.61
2019-02-16T21:32:17.555Z,5.57
2019-02-16T21:34:54.165Z,5.57
2019-02-16T21:37:48.427Z,5.56
2019-02-16T21:40:29.530Z,5.60
2019-02-16T21:43:18.025Z,5.62
2019-02-16T21:46:09.368Z,5.66
2019-02-16T21:48:49.667Z,5.67
2019-02-16T21:51:46.931Z,5.64
2019-02-16T21:54:21.847Z,5.66
2019-02-16T21:57:12.879Z,5.64
2019-02-16T22:00:01.467Z,5.68
2019-02-16T22:02:36.272Z,5.62
2019-02-16T22:05:27.287Z,5.64
2019-02-16T22:08:13.994Z,5.62
2019-02-16T22:11:01.829Z,5.59
2019-02-16T22:13:29.936Z,5.58
2019-02-16T22:15:58.950Z,5.53
2019-02-16T22:18:27.230Z,5.54
2019-02-16T22:20:55.436Z,5.48
2019-02-16T22:23:23.565Z,5.50
2019-02-16T22:25:51.869Z,5.52
2019-02-16T22:28:30.552Z,5.51
2019-02-16T22:30:50.860Z,5.54
2019-02-16T22:33:19.365Z,5.58
2019-02-16T22:35:47.467Z,5.64
2019-02-16T22:38:15.867Z,5.71
2019-02-16T22:40:44.341Z,5.70
2019-02-16T22:43:12.509Z,5.67
2019-02-16T22:45:40.595Z,5.65
2019-02-16T22:48:08.661Z,5.65
2019-02-16T22:50:39.886Z,5.67
2019-02-16T22:53:08.448Z,5.62
2019-02-16T22:55:36.645Z,5.60
2019-02-16T22:58:04.827Z,5.57
2019-02-16T23:00:47.500Z,5.51
2019-02-16T23:03:15.946Z,5.45
2019-02-16T23:05:44.052Z,5.39
2019-02-16T23:08:12.243Z,5.40
2019-02-16T23:10:42.169Z,5.39
2019-02-16T23:13:10.248Z,5.31
2019-02-16T23:15:41.229Z,5.33
2019-02-16T23:18:09.425Z,5.25
2019-02-16T23:20:37.815Z,5.14
2019-02-16T23:23:06.173Z,4.92
2019-02-16T23:25:34.322Z,4.79
2019-02-16T23:28:02.933Z,4.59
2019-02-16T23:30:31.032Z,4.57
2019-02-16T23:32:59.183Z,4.77
2019-02-16T23:35:27.276Z,4.74
2019-02-16T23:37:55.452Z,4.75
2019-02-16T23:40:23.578Z,4.71
2019-02-16T23:42:51.796Z,4.69
2019-02-16T23:45:20.210Z,4.68
2019-02-16T23:47:48.353Z,4.54
2019-02-16T23:50:16.485Z,4.40
2019-02-16T23:52:44.620Z,4.33
2019-02-16T23:55:12.701Z,4.23
2019-02-16T23:57:40.840Z,4.27
